createdAt,value
2023-03-08T00:00:36.046Z,98355.00
2023-03-08T00:03:03.844Z,98349.03
2023-03-08T00:05:30.820Z,98354.25
2023-03-08T00:08:06.315Z,98348.22
2023-03-08T00:10:37.753Z,98347.31
2023-03-08T00:13:04.967Z,98348.22
2023-03-08T00:15:31.762Z,98349.13
2023-03-08T00:18:17.221Z,98351.69
2023-03-08T00:20:44.197Z,98352.53
2023-03-08T00:23:11.037Z,98360.28
2023-03-08T00:25:38.030Z,98349.94
2023-03-08T00:28:05.150Z,98356.81
2023-03-08T00:30:31.993Z,98339.56
2023-03-08T00:32:58.948Z,98344.78
2023-03-08T00:35:25.899Z,98350.84
2023-03-08T00:37:52.802Z,98346.50
2023-03-08T00:40:19.786Z,98338.78
2023-03-08T00:42:46.978Z,98343.94
2023-03-08T00:45:14.308Z,98342.22
2023-03-08T00:47:41.311Z,98337.91
2023-03-08T00:50:09.202Z,98337.91
2023-03-08T00:52:36.118Z,98328.41
2023-03-08T00:55:03.462Z,98331.03
2023-03-08T00:57:32.434Z,98333.63
2023-03-08T00:59:59.503Z,98325.88
2023-03-08T01:02:26.376Z,98328.47
2023-03-08T01:04:53.286Z,98331.06
2023-03-08T01:07:24.455Z,98328.47
2023-03-08T01:09:56.310Z,98328.47
2023-03-08T01:12:25.491Z,98327.63
2023-03-08T01:14:53.730Z,98326.75
2023-03-08T01:17:20.706Z,98326.72
2023-03-08T01:19:47.716Z,98326.75
2023-03-08T01:22:14.615Z,98327.59
2023-03-08T01:24:48.522Z,98328.47
2023-03-08T01:27:17.524Z,98318.97
2023-03-08T01:29:45.063Z,98321.56
2023-03-08T01:32:12.331Z,98318.97
2023-03-08T01:34:40.107Z,98331.03
2023-03-08T01:37:07.129Z,98318.09
2023-03-08T01:39:34.017Z,98325.88
2023-03-08T01:42:07.617Z,98325.88
2023-03-08T01:44:54.813Z,98327.56
2023-03-08T01:47:24.821Z,98327.59
2023-03-08T01:49:58.357Z,98327.56
2023-03-08T01:52:39.980Z,98323.28
2023-03-08T01:55:11.148Z,98325.88
2023-03-08T01:57:45.740Z,98329.31
2023-03-08T02:03:03.456Z,98321.50
2023-03-08T02:05:31.370Z,98321.50
2023-03-08T02:07:58.424Z,98318.91
2023-03-08T02:10:25.926Z,98318.03
2023-03-08T02:12:52.831Z,98318.00
2023-03-08T02:15:21.409Z,98323.19
2023-03-08T02:17:48.918Z,98312.00
2023-03-08T02:20:26.281Z,98317.13
2023-03-08T02:22:53.727Z,98324.88
2023-03-08T02:25:24.688Z,98318.84
2023-03-08T02:27:55.149Z,98319.72
2023-03-08T02:30:30.522Z,98321.41
2023-03-08T02:32:58.581Z,98319.66
2023-03-08T02:35:26.674Z,98323.13
2023-03-08T02:37:53.627Z,98332.59
2023-03-08T02:40:20.802Z,98325.75
2023-03-08T02:42:47.775Z,98329.16
2023-03-08T02:45:14.746Z,98327.41
2023-03-08T02:47:42.571Z,98328.28
2023-03-08T02:50:10.150Z,98326.56
2023-03-08T02:52:37.232Z,98326.53
2023-03-08T02:55:04.714Z,98335.13
2023-03-08T02:57:31.930Z,98339.47
2023-03-08T02:59:58.772Z,98336.84
2023-03-08T03:02:25.870Z,98340.34
2023-03-08T03:04:52.812Z,98342.91
2023-03-08T03:07:19.700Z,98339.47
2023-03-08T03:09:46.981Z,98334.28
2023-03-08T03:12:13.958Z,98340.31
2023-03-08T03:14:40.854Z,98336.88
2023-03-08T03:17:07.765Z,98332.56
2023-03-08T03:19:35.026Z,98335.16
2023-03-08T03:22:02.140Z,98345.50
2023-03-08T03:24:29.262Z,98337.72
2023-03-08T03:26:56.126Z,98348.09
2023-03-08T03:29:23.055Z,98350.69
2023-03-08T03:31:50.109Z,98351.59
2023-03-08T03:34:17.182Z,98350.69
2023-03-08T03:36:44.152Z,98355.88
2023-03-08T03:39:11.000Z,98351.59
2023-03-08T03:41:37.830Z,98354.16
2023-03-08T03:44:05.109Z,98355.84
2023-03-08T03:46:32.356Z,98355.03
2023-03-08T03:48:59.705Z,98356.75
2023-03-08T03:51:27.058Z,98362.78
2023-03-08T03:53:53.971Z,98362.81
2023-03-08T03:56:24.747Z,98364.53
2023-03-08T03:58:52.928Z,98364.53
2023-03-08T04:01:22.908Z,98360.25
2023-03-08T04:03:50.004Z,98353.28
2023-03-08T04:06:20.062Z,98367.13
2023-03-08T04:08:47.896Z,98356.78
2023-03-08T04:11:18.542Z,98356.78
2023-03-08T04:13:45.873Z,98355.06
2023-03-08T04:16:14.191Z,98355.94
2023-03-08T04:18:41.690Z,98349.91
2023-03-08T04:21:09.510Z,98350.75
2023-03-08T04:23:37.556Z,98349.00
2023-03-08T04:26:05.857Z,98358.50
2023-03-08T04:28:34.146Z,98360.25
2023-03-08T04:31:01.686Z,98354.16
2023-03-08T04:33:28.735Z,98362.75
2023-03-08T04:35:55.712Z,98360.19
2023-03-08T04:38:22.777Z,98366.25
2023-03-08T04:41:05.669Z,98354.97
2023-03-08T04:43:33.769Z,98356.72
2023-03-08T04:46:01.841Z,98364.50
2023-03-08T04:48:28.949Z,98367.88
2023-03-08T04:50:58.019Z,98373.97
2023-03-08T04:53:26.157Z,98372.22
2023-03-08T04:55:53.649Z,98373.09
2023-03-08T04:58:21.191Z,98379.97
2023-03-08T05:00:48.607Z,98380.84
2023-03-08T05:03:15.789Z,98370.53
2023-03-08T05:05:55.049Z,98379.16
2023-03-08T05:08:23.328Z,98375.75
2023-03-08T05:11:00.944Z,98378.34
2023-03-08T05:13:41.125Z,98379.22
2023-03-08T05:16:09.229Z,98380.94
2023-03-08T05:18:36.238Z,98379.28
2023-03-08T05:21:12.033Z,98377.50
2023-03-08T05:23:39.107Z,98380.09
2023-03-08T05:26:08.006Z,98387.03
2023-03-08T05:28:37.508Z,98397.41
2023-03-08T05:31:05.913Z,98393.09
2023-03-08T05:33:33.868Z,98392.22
2023-03-08T05:36:01.078Z,98386.19
2023-03-08T05:38:28.820Z,98395.69
2023-03-08T05:40:58.270Z,98392.28
2023-03-08T05:43:25.326Z,98393.13
2023-03-08T05:46:00.507Z,98388.84
2023-03-08T05:48:27.562Z,98390.59
2023-03-08T05:50:55.113Z,98394.09
2023-03-08T05:53:24.466Z,98395.81
2023-03-08T05:55:53.546Z,98381.13
2023-03-08T05:58:20.515Z,98401.00
2023-03-08T06:00:48.608Z,98396.69
2023-03-08T06:03:16.840Z,98394.97
2023-03-08T06:05:44.080Z,98401.03
2023-03-08T06:08:11.130Z,98406.25
2023-03-08T06:10:38.210Z,98410.56
2023-03-08T06:13:05.191Z,98408.84
2023-03-08T06:15:33.093Z,98411.38
2023-03-08T06:18:01.199Z,98412.28
2023-03-08T06:20:28.360Z,98424.31
2023-03-08T06:22:55.653Z,98424.19
2023-03-08T06:25:23.664Z,98430.88
2023-03-08T06:27:50.929Z,98427.84
2023-03-08T06:30:18.309Z,98432.25
2023-03-08T06:32:45.537Z,98428.81
2023-03-08T06:35:12.714Z,98432.75
2023-03-08T06:37:39.906Z,98434.88
2023-03-08T06:40:09.401Z,98431.00
2023-03-08T06:42:41.623Z,98429.34
2023-03-08T06:45:11.481Z,98434.03
2023-03-08T06:47:38.745Z,98436.47
2023-03-08T06:50:05.984Z,98435.09
2023-03-08T06:52:37.895Z,98435.91
2023-03-08T06:55:05.670Z,98439.00
2023-03-08T06:57:32.722Z,98452.53
2023-03-08T06:59:59.934Z,98454.63
2023-03-08T07:02:26.849Z,98451.97
2023-03-08T07:04:54.577Z,98446.06
2023-03-08T07:07:21.593Z,98443.06
2023-03-08T07:09:51.267Z,98441.41
2023-03-08T07:12:19.470Z,98440.25
2023-03-08T07:14:46.691Z,98435.09
2023-03-08T07:17:13.829Z,98433.59
2023-03-08T07:19:40.772Z,98430.75
2023-03-08T07:22:10.690Z,98431.31
2023-03-08T07:24:37.816Z,98428.13
2023-03-08T07:27:05.404Z,98436.75
2023-03-08T07:29:32.266Z,98445.34
2023-03-08T07:31:59.400Z,98438.22
2023-03-08T07:34:26.448Z,98438.09
2023-03-08T07:36:53.400Z,98432.09
2023-03-08T07:39:20.478Z,98426.72
2023-03-08T07:41:47.823Z,98431.66
2023-03-08T07:44:14.909Z,98428.25
2023-03-08T07:46:42.007Z,98421.47
2023-03-08T07:49:10.837Z,98436.75
2023-03-08T07:51:47.206Z,98442.09
2023-03-08T07:54:14.364Z,98440.28
2023-03-08T07:56:41.495Z,98442.56
2023-03-08T07:59:30.127Z,98442.59
2023-03-08T08:01:57.386Z,98445.16
2023-03-08T08:04:24.615Z,98444.81
2023-03-08T08:06:51.991Z,98454.34
2023-03-08T08:09:22.531Z,98450.78
2023-03-08T08:11:52.405Z,98450.69
2023-03-08T08:14:19.325Z,98454.81
2023-03-08T08:16:46.717Z,98459.50
2023-03-08T08:19:14.903Z,98458.31
2023-03-08T08:21:51.961Z,98456.78
2023-03-08T08:24:19.689Z,98457.94
2023-03-08T08:26:46.786Z,98464.19
2023-03-08T08:29:15.048Z,98461.09
2023-03-08T08:31:48.278Z,98464.50
2023-03-08T08:34:15.423Z,98466.69
2023-03-08T08:36:42.408Z,98469.78
2023-03-08T08:39:12.195Z,98472.78
2023-03-08T08:41:39.138Z,98467.63
2023-03-08T08:44:06.097Z,98473.84
2023-03-08T08:46:35.297Z,98472.47
2023-03-08T08:49:05.561Z,98467.06
2023-03-08T08:51:34.341Z,98459.19
2023-03-08T08:54:01.345Z,98457.56
2023-03-08T08:56:29.976Z,98460.00
2023-03-08T08:58:58.017Z,98454.38
2023-03-08T09:01:28.539Z,98456.34
2023-03-08T09:03:59.975Z,98458.41
2023-03-08T09:06:31.446Z,98460.28
2023-03-08T09:09:00.847Z,98461.47
2023-03-08T09:11:28.275Z,98456.72
2023-03-08T09:13:56.136Z,98457.09
2023-03-08T09:16:25.010Z,98453.25
2023-03-08T09:18:52.532Z,98441.59
2023-03-08T09:21:19.831Z,98441.34
2023-03-08T09:23:46.974Z,98440.41
2023-03-08T09:26:14.606Z,98438.91
2023-03-08T09:28:41.960Z,98440.13
2023-03-08T09:31:13.218Z,98443.94
2023-03-08T09:33:42.038Z,98442.22
2023-03-08T09:36:15.852Z,98439.59
2023-03-08T09:38:43.372Z,98438.66
2023-03-08T09:41:15.818Z,98439.16
2023-03-08T09:43:59.112Z,98439.28
2023-03-08T09:46:36.669Z,98435.00
2023-03-08T09:49:10.381Z,98436.81
2023-03-08T09:51:43.521Z,98429.06
2023-03-08T09:54:17.420Z,98439.88
2023-03-08T09:56:50.502Z,98434.06
2023-03-08T09:59:42.634Z,98428.75
2023-03-08T10:02:49.602Z,98423.97
2023-03-08T10:05:28.968Z,98423.56
2023-03-08T10:08:09.565Z,98426.84
2023-03-08T10:11:03.693Z,98415.59
2023-03-08T10:13:35.492Z,98423.81
2023-03-08T10:16:23.705Z,98415.75
2023-03-08T10:19:11.662Z,98413.44
2023-03-08T10:21:40.855Z,98406.38
2023-03-08T10:24:08.053Z,98414.13
2023-03-08T10:26:34.969Z,98410.00
2023-03-08T10:29:01.864Z,98403.88
2023-03-08T10:31:34.752Z,98389.28
2023-03-08T10:34:11.354Z,98403.97
2023-03-08T10:36:47.665Z,98411.22
2023-03-08T10:39:14.585Z,98402.53
2023-03-08T10:41:45.877Z,98402.28
2023-03-08T10:44:39.365Z,98401.13
2023-03-08T10:47:27.571Z,98397.44
2023-03-08T10:50:26.317Z,98393.03
2023-03-08T10:53:07.968Z,98397.13
2023-03-08T10:55:44.890Z,98382.31
2023-03-08T10:58:31.060Z,98375.47
2023-03-08T11:01:19.326Z,98368.75
2023-03-08T11:03:46.754Z,98367.66
2023-03-08T11:06:16.028Z,98369.91
2023-03-08T11:08:59.462Z,98361.91
2023-03-08T11:11:27.559Z,98360.88
2023-03-08T11:13:56.064Z,98358.97
2023-03-08T11:17:00.423Z,98349.31
2023-03-08T11:19:54.149Z,98345.25
2023-03-08T11:22:53.481Z,98346.13
2023-03-08T11:25:32.865Z,98334.59
2023-03-08T11:28:47.309Z,98340.34
2023-03-08T11:31:26.920Z,98334.94
2023-03-08T11:34:38.823Z,98327.53
2023-03-08T11:37:50.766Z,98327.56
2023-03-08T11:40:50.123Z,98323.56
2023-03-08T11:43:44.489Z,98318.13
2023-03-08T11:46:41.433Z,98322.34
2023-03-08T11:49:27.774Z,98322.56
2023-03-08T11:52:05.083Z,98311.50
2023-03-08T11:54:54.916Z,98318.44
2023-03-08T11:57:26.335Z,98313.84
2023-03-08T12:00:13.460Z,98313.78
2023-03-08T12:02:50.013Z,98318.69
2023-03-08T12:05:29.539Z,98316.59
2023-03-08T12:07:59.565Z,98319.84
2023-03-08T12:10:56.868Z,98314.91
2023-03-08T12:13:38.058Z,98313.50
2023-03-08T12:16:20.430Z,98311.31
2023-03-08T12:18:59.195Z,98307.66
2023-03-08T12:21:53.012Z,98316.16
2023-03-08T12:24:39.350Z,98310.31
2023-03-08T12:27:15.811Z,98310.91
2023-03-08T12:30:01.885Z,98310.72
2023-03-08T12:32:30.605Z,98301.84
2023-03-08T12:35:07.324Z,98296.06
2023-03-08T12:37:34.349Z,98302.09
2023-03-08T12:40:22.390Z,98294.28
2023-03-08T12:42:51.083Z,98289.81
2023-03-08T12:45:21.660Z,98286.06
2023-03-08T12:48:00.018Z,98292.44
2023-03-08T12:50:27.210Z,98289.75
2023-03-08T12:53:13.952Z,98282.06
2023-03-08T12:55:41.053Z,98282.69
2023-03-08T12:58:21.468Z,98278.63
2023-03-08T13:01:02.070Z,98275.63
2023-03-08T13:03:41.211Z,98255.66
2023-03-08T13:06:24.493Z,98270.53
2023-03-08T13:09:24.373Z,98263.75
2023-03-08T13:12:02.928Z,98252.38
2023-03-08T13:14:45.406Z,98252.50
2023-03-08T13:18:00.034Z,98261.03
2023-03-08T13:20:45.520Z,98251.75
2023-03-08T13:23:16.167Z,98267.84
2023-03-08T13:25:59.474Z,98261.81
2023-03-08T13:28:47.710Z,98253.31
2023-03-08T13:31:25.434Z,98263.22
2023-03-08T13:33:54.983Z,98253.63
2023-03-08T13:36:34.365Z,98242.16
2023-03-08T13:39:06.271Z,98237.91
2023-03-08T13:41:42.905Z,98237.38
2023-03-08T13:44:24.782Z,98230.78
2023-03-08T13:47:28.353Z,98230.53
2023-03-08T13:49:58.787Z,98223.19
2023-03-08T13:52:32.260Z,98226.38
2023-03-08T13:55:10.644Z,98225.69
2023-03-08T13:57:40.673Z,98224.66
2023-03-08T14:00:30.050Z,98225.88
2023-03-08T14:02:58.298Z,98217.03
2023-03-08T14:05:27.947Z,98215.78
2023-03-08T14:08:18.604Z,98225.63
2023-03-08T14:10:52.071Z,98216.69
2023-03-08T14:13:30.212Z,98216.94
2023-03-08T14:16:00.709Z,98210.13
2023-03-08T14:18:35.479Z,98205.13
2023-03-08T14:21:14.223Z,98190.47
2023-03-08T14:24:03.264Z,98187.97
2023-03-08T14:26:41.236Z,98201.09
2023-03-08T14:29:27.646Z,98190.72
2023-03-08T14:32:21.326Z,98190.03
2023-03-08T14:34:50.033Z,98189.94
2023-03-08T14:37:16.877Z,98187.81
2023-03-08T14:39:46.689Z,98189.22
2023-03-08T14:42:36.990Z,98186.94
2023-03-08T14:45:25.336Z,98177.38
2023-03-08T14:48:01.685Z,98177.22
2023-03-08T14:50:35.113Z,98177.41
2023-03-08T14:53:04.593Z,98180.53
2023-03-08T14:55:36.042Z,98170.84
2023-03-08T14:58:12.954Z,98179.25
2023-03-08T15:00:55.320Z,98178.94
2023-03-08T15:03:24.208Z,98169.72
2023-03-08T15:05:52.331Z,98173.34
2023-03-08T15:08:19.841Z,98174.38
2023-03-08T15:10:49.673Z,98169.72
2023-03-08T15:13:21.992Z,98160.28
2023-03-08T15:15:52.946Z,98159.97
2023-03-08T15:18:21.075Z,98152.31
2023-03-08T15:20:51.091Z,98152.81
2023-03-08T15:23:22.695Z,98156.63
2023-03-08T15:25:50.502Z,98157.66
2023-03-08T15:28:20.211Z,98155.19
2023-03-08T15:30:48.047Z,98168.28
2023-03-08T15:33:15.455Z,98159.75
2023-03-08T15:35:44.124Z,98171.81
2023-03-08T15:38:18.130Z,98153.41
2023-03-08T15:40:45.064Z,98155.22
2023-03-08T15:43:12.181Z,98156.47
2023-03-08T15:45:44.607Z,98159.84
2023-03-08T15:48:18.002Z,98167.78
2023-03-08T15:50:45.794Z,98174.00
2023-03-08T15:53:20.583Z,98179.16
2023-03-08T15:55:53.532Z,98169.28
2023-03-08T15:58:20.595Z,98198.66
2023-03-08T16:00:48.065Z,98187.31
2023-03-08T16:03:15.494Z,98180.56
2023-03-08T16:05:43.884Z,98185.00
2023-03-08T16:08:11.734Z,98174.06
2023-03-08T16:10:42.178Z,98180.63
2023-03-08T16:13:09.446Z,98197.41
2023-03-08T16:15:41.477Z,98197.63
2023-03-08T16:18:09.061Z,98201.88
2023-03-08T16:20:36.268Z,98211.31
2023-03-08T16:23:04.898Z,98200.31
2023-03-08T16:25:32.439Z,98202.31
2023-03-08T16:28:01.131Z,98204.34
2023-03-08T16:30:28.795Z,98204.47
2023-03-08T16:32:59.985Z,98204.59
2023-03-08T16:35:29.240Z,98217.56
2023-03-08T16:37:56.634Z,98203.97
2023-03-08T16:40:23.994Z,98209.28
2023-03-08T16:42:52.028Z,98225.69
2023-03-08T16:45:19.565Z,98214.72
2023-03-08T16:47:46.897Z,98232.19
2023-03-08T16:50:14.237Z,98234.72
2023-03-08T16:52:46.238Z,98235.69
2023-03-08T16:55:13.310Z,98238.31
2023-03-08T16:57:40.549Z,98248.03
2023-03-08T17:00:13.408Z,98243.72
2023-03-08T17:02:40.878Z,98245.59
2023-03-08T17:05:10.846Z,98257.78
2023-03-08T17:07:59.893Z,98263.13
2023-03-08T17:10:26.852Z,98264.94
2023-03-08T17:12:55.633Z,98270.41
2023-03-08T17:15:22.896Z,98269.50
2023-03-08T17:17:49.919Z,98272.06
2023-03-08T17:20:17.481Z,98272.19
2023-03-08T17:22:46.189Z,98284.38
2023-03-08T17:25:13.503Z,98279.22
2023-03-08T17:27:44.184Z,98289.00
2023-03-08T17:30:15.133Z,98288.09
2023-03-08T17:32:42.400Z,98303.78
2023-03-08T17:35:09.813Z,98299.56
2023-03-08T17:37:44.531Z,98310.88
2023-03-08T17:40:15.079Z,98319.72
2023-03-08T17:42:42.445Z,98327.56
2023-03-08T17:45:11.957Z,98319.91
2023-03-08T17:47:39.338Z,98323.44
2023-03-08T17:50:08.005Z,98313.09
2023-03-08T17:52:37.013Z,98318.38
2023-03-08T17:55:06.398Z,98326.22
2023-03-08T17:57:36.356Z,98331.53
2023-03-08T18:00:06.149Z,98334.22
2023-03-08T18:02:33.861Z,98343.06
2023-03-08T18:05:00.944Z,98353.53
2023-03-08T18:07:29.478Z,98348.41
2023-03-08T18:09:57.069Z,98367.50
2023-03-08T18:12:24.946Z,98374.50
2023-03-08T18:14:53.909Z,98367.63
2023-03-08T18:17:22.826Z,98379.00
2023-03-08T18:19:50.420Z,98376.41
2023-03-08T18:22:17.447Z,98375.75
2023-03-08T18:24:45.618Z,98376.59
2023-03-08T18:27:14.486Z,98383.63
2023-03-08T18:29:41.735Z,98381.13
2023-03-08T18:32:10.825Z,98356.91
2023-03-08T18:34:39.154Z,98368.28
2023-03-08T18:37:06.505Z,98382.09
2023-03-08T18:39:34.003Z,98383.91
2023-03-08T18:42:02.396Z,98384.78
2023-03-08T18:44:29.980Z,98394.16
2023-03-08T18:46:57.419Z,98408.00
2023-03-08T18:49:25.971Z,98406.22
2023-03-08T18:51:53.251Z,98407.88
2023-03-08T18:54:23.841Z,98407.03
2023-03-08T18:56:53.881Z,98400.09
2023-03-08T18:59:21.921Z,98395.66
2023-03-08T19:01:50.369Z,98403.50
2023-03-08T19:04:20.537Z,98409.53
2023-03-08T19:06:47.846Z,98402.72
2023-03-08T19:09:19.085Z,98413.03
2023-03-08T19:11:48.326Z,98419.13
2023-03-08T19:14:16.811Z,98415.75
2023-03-08T19:16:44.072Z,98412.25
2023-03-08T19:19:15.131Z,98424.41
2023-03-08T19:21:45.198Z,98424.41
2023-03-08T19:24:14.042Z,98434.88
2023-03-08T19:26:43.274Z,98435.81
2023-03-08T19:29:14.316Z,98434.09
2023-03-08T19:31:44.441Z,98433.22
2023-03-08T19:34:13.955Z,98431.56
2023-03-08T19:36:45.262Z,98429.00
2023-03-08T19:39:20.175Z,98426.50
2023-03-08T19:41:55.920Z,98425.69
2023-03-08T19:44:24.029Z,98429.22
2023-03-08T19:46:53.150Z,98442.25
2023-03-08T19:49:23.021Z,98432.59
2023-03-08T19:51:52.618Z,98423.16
2023-03-08T19:54:20.378Z,98428.44
2023-03-08T19:56:48.521Z,98444.13
2023-03-08T19:59:15.961Z,98448.47
2023-03-08T20:01:44.907Z,98446.84
2023-03-08T20:04:13.012Z,98437.31
2023-03-08T20:06:46.299Z,98436.56
2023-03-08T20:09:19.288Z,98442.59
2023-03-08T20:11:46.494Z,98438.16
2023-03-08T20:14:13.490Z,98441.66
2023-03-08T20:16:41.005Z,98439.00
2023-03-08T20:19:08.651Z,98440.91
2023-03-08T20:21:36.149Z,98439.19
2023-03-08T20:24:03.225Z,98437.41
2023-03-08T20:26:35.694Z,98434.84
2023-03-08T20:29:02.917Z,98434.75
2023-03-08T20:31:31.707Z,98421.72
2023-03-08T20:33:59.728Z,98425.28
2023-03-08T20:36:30.733Z,98430.53
2023-03-08T20:38:59.059Z,98427.09
2023-03-08T20:41:46.129Z,98421.81
2023-03-08T20:44:15.710Z,98426.16
2023-03-08T20:46:43.169Z,98423.59
2023-03-08T20:49:12.986Z,98422.78
2023-03-08T20:51:40.251Z,98421.88
2023-03-08T20:54:07.232Z,98418.47
2023-03-08T20:56:34.746Z,98420.16
2023-03-08T20:59:02.655Z,98421.03
2023-03-08T21:01:32.262Z,98407.44
2023-03-08T21:04:01.039Z,98408.91
2023-03-08T21:06:30.932Z,98406.56
2023-03-08T21:08:59.785Z,98406.44
2023-03-08T21:11:27.150Z,98412.47
2023-03-08T21:13:55.716Z,98416.84
2023-03-08T21:16:24.503Z,98417.81
2023-03-08T21:19:01.440Z,98411.78
2023-03-08T21:21:40.843Z,98417.78
2023-03-08T21:24:19.406Z,98409.19
2023-03-08T21:26:46.705Z,98389.25
2023-03-08T21:29:16.697Z,98406.59
2023-03-08T21:31:48.476Z,98411.78
2023-03-08T21:34:16.017Z,98410.06
2023-03-08T21:36:43.452Z,98413.50
2023-03-08T21:39:12.151Z,98416.09
2023-03-08T21:41:42.418Z,98416.97
2023-03-08T21:44:14.191Z,98416.09
2023-03-08T21:46:42.162Z,98412.72
2023-03-08T21:49:25.087Z,98404.91
2023-03-08T21:51:54.421Z,98413.59
2023-03-08T21:54:22.442Z,98412.81
2023-03-08T21:56:49.751Z,98394.59
2023-03-08T21:59:17.287Z,98404.13
2023-03-08T22:01:50.472Z,98411.16
2023-03-08T22:04:17.917Z,98410.38
2023-03-08T22:06:44.856Z,98405.13
2023-03-08T22:09:11.922Z,98413.91
2023-03-08T22:11:41.543Z,98407.81
2023-03-08T22:14:09.006Z,98406.09
2023-03-08T22:16:38.335Z,98405.34
2023-03-08T22:19:10.232Z,98408.81
2023-03-08T22:21:37.387Z,98405.34
2023-03-08T22:24:04.856Z,98401.91
2023-03-08T22:26:32.230Z,98396.69
2023-03-08T22:28:59.703Z,98399.31
2023-03-08T22:31:29.708Z,98395.09
2023-03-08T22:33:57.538Z,98400.41
2023-03-08T22:36:25.105Z,98385.63
2023-03-08T22:38:52.143Z,98379.59
2023-03-08T22:41:24.717Z,98385.66
2023-03-08T22:43:52.493Z,98379.66
2023-03-08T22:46:22.742Z,98372.75
2023-03-08T22:48:51.318Z,98375.47
2023-03-08T22:51:20.716Z,98371.91
2023-03-08T22:53:47.593Z,98371.09
2023-03-08T22:56:26.999Z,98363.41
2023-03-08T22:58:54.275Z,98366.72
2023-03-08T23:01:23.521Z,98367.59
2023-03-08T23:03:54.142Z,98365.81
2023-03-08T23:06:21.473Z,98364.03
2023-03-08T23:08:49.056Z,98358.84
2023-03-08T23:11:16.396Z,98349.25
2023-03-08T23:13:43.978Z,98355.25
2023-03-08T23:16:16.855Z,98351.78
2023-03-08T23:18:53.033Z,98340.56
2023-03-08T23:21:22.386Z,98348.25
2023-03-08T23:23:49.701Z,98337.78
2023-03-08T23:26:26.904Z,98341.19
2023-03-08T23:28:55.557Z,98348.09
2023-03-08T23:31:26.325Z,98355.06
2023-03-08T23:33:54.224Z,98354.19
2023-03-08T23:36:23.810Z,98362.88
2023-03-08T23:38:52.816Z,98357.66
2023-03-08T23:41:20.242Z,98356.66
2023-03-08T23:43:47.687Z,98355.78
2023-03-08T23:46:18.111Z,98361.03
2023-03-08T23:48:47.229Z,98359.28
2023-03-08T23:51:20.086Z,98354.03
2023-03-08T23:53:51.873Z,98354.03
2023-03-08T23:56:27.591Z,98357.47
2023-03-08T23:58:57.076Z,98361.09
